sensor_id;sensor_type;location;lat;lon;timestamp;P1;durP1;ratioP1;P2;durP2;ratioP2
77402;SDS011;66472;53.046;8.656;2023-04-23T00:02:56;33.93;;;31.43;;
77402;SDS011;66472;53.046;8.656;2023-04-23T00:07:52;31.23;;;28.73;;
77402;SDS011;66472;53.046;8.656;2023-04-23T00:12:48;32.37;;;29.70;;
77402;SDS011;66472;53.046;8.656;2023-04-23T00:17:43;31.73;;;29.23;;
77402;SDS011;66472;53.046;8.656;2023-04-23T00:22:39;30.87;;;28.27;;
77402;SDS011;66472;53.046;8.656;2023-04-23T00:27:34;33.83;;;30.93;;
77402;SDS011;66472;53.046;8.656;2023-04-23T00:32:30;33.07;;;30.30;;
77402;SDS011;66472;53.046;8.656;2023-04-23T00:37:26;33.53;;;30.60;;
77402;SDS011;66472;53.046;8.656;2023-04-23T00:42:21;32.03;;;29.13;;
77402;SDS011;66472;53.046;8.656;2023-04-23T00:47:17;34.47;;;31.47;;
77402;SDS011;66472;53.046;8.656;2023-04-23T00:52:15;32.03;;;28.83;;
77402;SDS011;66472;53.046;8.656;2023-04-23T00:57:12;33.97;;;30.67;;
77402;SDS011;66472;53.046;8.656;2023-04-23T01:02:07;33.97;;;30.47;;
77402;SDS011;66472;53.046;8.656;2023-04-23T01:07:03;33.00;;;29.87;;
77402;SDS011;66472;53.046;8.656;2023-04-23T01:11:58;33.60;;;30.40;;
77402;SDS011;66472;53.046;8.656;2023-04-23T01:16:56;34.03;;;30.57;;
77402;SDS011;66472;53.046;8.656;2023-04-23T01:21:52;33.83;;;30.63;;
77402;SDS011;66472;53.046;8.656;2023-04-23T01:26:48;37.43;;;32.63;;
77402;SDS011;66472;53.046;8.656;2023-04-23T01:31:43;35.93;;;32.33;;
77402;SDS011;66472;53.046;8.656;2023-04-23T01:36:39;39.90;;;34.30;;
77402;SDS011;66472;53.046;8.656;2023-04-23T01:41:35;38.53;;;34.60;;
77402;SDS011;66472;53.046;8.656;2023-04-23T01:46:31;36.13;;;32.40;;
77402;SDS011;66472;53.046;8.656;2023-04-23T01:51:26;35.27;;;31.70;;
77402;SDS011;66472;53.046;8.656;2023-04-23T01:56:24;34.10;;;30.57;;
77402;SDS011;66472;53.046;8.656;2023-04-23T02:01:19;34.93;;;31.43;;
77402;SDS011;66472;53.046;8.656;2023-04-23T02:06:15;36.73;;;32.77;;
77402;SDS011;66472;53.046;8.656;2023-04-23T02:11:11;35.87;;;31.97;;
77402;SDS011;66472;53.046;8.656;2023-04-23T02:16:06;33.47;;;30.07;;
77402;SDS011;66472;53.046;8.656;2023-04-23T02:21:01;33.13;;;29.80;;
77402;SDS011;66472;53.046;8.656;2023-04-23T02:25:58;34.63;;;30.30;;
77402;SDS011;66472;53.046;8.656;2023-04-23T02:30:54;34.30;;;28.17;;
77402;SDS011;66472;53.046;8.656;2023-04-23T02:35:49;31.43;;;28.03;;
77402;SDS011;66472;53.046;8.656;2023-04-23T02:40:44;33.23;;;26.30;;
77402;SDS011;66472;53.046;8.656;2023-04-23T02:45:40;28.07;;;25.23;;
77402;SDS011;66472;53.046;8.656;2023-04-23T02:50:35;27.83;;;24.87;;
77402;SDS011;66472;53.046;8.656;2023-04-23T02:55:33;24.23;;;21.73;;
77402;SDS011;66472;53.046;8.656;2023-04-23T03:00:28;29.33;;;23.67;;
77402;SDS011;66472;53.046;8.656;2023-04-23T03:05:24;27.17;;;23.80;;
77402;SDS011;66472;53.046;8.656;2023-04-23T03:10:20;27.63;;;24.70;;
77402;SDS011;66472;53.046;8.656;2023-04-23T03:15:16;25.30;;;22.30;;
77402;SDS011;66472;53.046;8.656;2023-04-23T03:20:12;28.60;;;25.57;;
77402;SDS011;66472;53.046;8.656;2023-04-23T03:25:09;25.90;;;23.33;;
77402;SDS011;66472;53.046;8.656;2023-04-23T03:30:05;24.57;;;21.93;;
77402;SDS011;66472;53.046;8.656;2023-04-23T03:35:02;29.27;;;24.50;;
77402;SDS011;66472;53.046;8.656;2023-04-23T03:39:58;25.03;;;22.43;;
77402;SDS011;66472;53.046;8.656;2023-04-23T03:44:53;31.70;;;24.93;;
77402;SDS011;66472;53.046;8.656;2023-04-23T03:49:49;29.87;;;26.90;;
77402;SDS011;66472;53.046;8.656;2023-04-23T03:54:45;33.37;;;29.07;;
77402;SDS011;66472;53.046;8.656;2023-04-23T03:59:46;31.03;;;27.67;;
77402;SDS011;66472;53.046;8.656;2023-04-23T04:04:42;30.33;;;27.17;;
77402;SDS011;66472;53.046;8.656;2023-04-23T04:09:39;31.93;;;28.27;;
77402;SDS011;66472;53.046;8.656;2023-04-23T04:14:35;34.97;;;28.80;;
77402;SDS011;66472;53.046;8.656;2023-04-23T04:19:30;33.03;;;29.63;;
77402;SDS011;66472;53.046;8.656;2023-04-23T04:24:25;34.83;;;30.07;;
77402;SDS011;66472;53.046;8.656;2023-04-23T04:29:21;34.23;;;30.50;;
77402;SDS011;66472;53.046;8.656;2023-04-23T04:34:18;39.20;;;32.20;;
77402;SDS011;66472;53.046;8.656;2023-04-23T04:39:14;33.13;;;29.60;;
77402;SDS011;66472;53.046;8.656;2023-04-23T04:44:09;34.90;;;31.10;;
77402;SDS011;66472;53.046;8.656;2023-04-23T04:49:08;35.20;;;31.52;;
77402;SDS011;66472;53.046;8.656;2023-04-23T04:54:07;35.83;;;32.03;;
77402;SDS011;66472;53.046;8.656;2023-04-23T04:59:02;39.87;;;31.90;;
77402;SDS011;66472;53.046;8.656;2023-04-23T05:03:58;36.27;;;32.37;;
77402;SDS011;66472;53.046;8.656;2023-04-23T05:08:56;34.53;;;30.37;;
77402;SDS011;66472;53.046;8.656;2023-04-23T05:13:51;33.63;;;30.03;;
77402;SDS011;66472;53.046;8.656;2023-04-23T05:18:49;33.10;;;29.13;;
77402;SDS011;66472;53.046;8.656;2023-04-23T05:23:46;32.67;;;28.57;;
77402;SDS011;66472;53.046;8.656;2023-04-23T05:28:41;36.60;;;30.70;;
77402;SDS011;66472;53.046;8.656;2023-04-23T05:33:37;33.40;;;29.13;;
77402;SDS011;66472;53.046;8.656;2023-04-23T05:38:32;32.17;;;28.73;;
77402;SDS011;66472;53.046;8.656;2023-04-23T05:43:31;33.40;;;27.97;;
77402;SDS011;66472;53.046;8.656;2023-04-23T05:48:26;32.67;;;28.47;;
77402;SDS011;66472;53.046;8.656;2023-04-23T05:53:22;35.70;;;30.40;;
77402;SDS011;66472;53.046;8.656;2023-04-23T05:58:17;33.20;;;28.77;;
77402;SDS011;66472;53.046;8.656;2023-04-23T06:03:13;37.80;;;28.70;;
77402;SDS011;66472;53.046;8.656;2023-04-23T06:08:08;36.53;;;29.30;;
77402;SDS011;66472;53.046;8.656;2023-04-23T06:13:03;32.73;;;27.90;;
77402;SDS011;66472;53.046;8.656;2023-04-23T06:17:59;30.57;;;26.83;;
77402;SDS011;66472;53.046;8.656;2023-04-23T06:22:54;31.00;;;26.83;;
77402;SDS011;66472;53.046;8.656;2023-04-23T06:27:50;31.13;;;26.87;;
77402;SDS011;66472;53.046;8.656;2023-04-23T06:32:50;33.97;;;28.87;;
77402;SDS011;66472;53.046;8.656;2023-04-23T06:37:46;31.53;;;27.80;;
77402;SDS011;66472;53.046;8.656;2023-04-23T06:42:41;32.73;;;25.50;;
77402;SDS011;66472;53.046;8.656;2023-04-23T06:47:47;33.87;;;28.37;;
77402;SDS011;66472;53.046;8.656;2023-04-23T06:52:43;36.73;;;28.80;;
77402;SDS011;66472;53.046;8.656;2023-04-23T06:57:39;38.37;;;30.90;;
77402;SDS011;66472;53.046;8.656;2023-04-23T07:02:34;34.30;;;28.30;;
77402;SDS011;66472;53.046;8.656;2023-04-23T07:07:29;40.00;;;31.53;;
77402;SDS011;66472;53.046;8.656;2023-04-23T07:12:25;36.10;;;30.57;;
77402;SDS011;66472;53.046;8.656;2023-04-23T07:17:20;35.85;;;28.52;;
77402;SDS011;66472;53.046;8.656;2023-04-23T07:22:15;35.50;;;31.67;;
77402;SDS011;66472;53.046;8.656;2023-04-23T07:27:11;38.63;;;30.17;;
77402;SDS011;66472;53.046;8.656;2023-04-23T07:32:06;33.83;;;27.10;;
77402;SDS011;66472;53.046;8.656;2023-04-23T07:37:02;34.50;;;25.93;;
77402;SDS011;66472;53.046;8.656;2023-04-23T07:41:57;28.60;;;23.17;;
77402;SDS011;66472;53.046;8.656;2023-04-23T07:46:52;32.75;;;24.65;;
77402;SDS011;66472;53.046;8.656;2023-04-23T07:51:48;28.20;;;24.27;;
77402;SDS011;66472;53.046;8.656;2023-04-23T07:56:43;27.27;;;22.23;;
77402;SDS011;66472;53.046;8.656;2023-04-23T08:01:38;27.97;;;24.20;;
77402;SDS011;66472;53.046;8.656;2023-04-23T08:06:36;29.30;;;23.43;;
77402;SDS011;66472;53.046;8.656;2023-04-23T08:11:31;27.67;;;22.30;;
77402;SDS011;66472;53.046;8.656;2023-04-23T08:16:27;27.53;;;24.63;;
77402;SDS011;66472;53.046;8.656;2023-04-23T08:21:22;27.97;;;23.70;;
77402;SDS011;66472;53.046;8.656;2023-04-23T08:26:19;28.73;;;23.07;;
77402;SDS011;66472;53.046;8.656;2023-04-23T08:31:14;30.80;;;23.73;;
77402;SDS011;66472;53.046;8.656;2023-04-23T08:36:10;30.57;;;22.93;;
77402;SDS011;66472;53.046;8.656;2023-04-23T08:41:05;30.53;;;22.83;;
77402;SDS011;66472;53.046;8.656;2023-04-23T08:46:04;26.17;;;20.90;;
77402;SDS011;66472;53.046;8.656;2023-04-23T08:51:00;24.03;;;20.37;;
77402;SDS011;66472;53.046;8.656;2023-04-23T08:55:56;21.97;;;19.30;;
77402;SDS011;66472;53.046;8.656;2023-04-23T09:00:51;22.90;;;19.80;;
77402;SDS011;66472;53.046;8.656;2023-04-23T09:05:47;24.27;;;20.50;;
77402;SDS011;66472;53.046;8.656;2023-04-23T09:10:42;24.57;;;19.97;;
77402;SDS011;66472;53.046;8.656;2023-04-23T09:15:39;23.67;;;17.87;;
77402;SDS011;66472;53.046;8.656;2023-04-23T09:20:37;22.30;;;17.43;;
77402;SDS011;66472;53.046;8.656;2023-04-23T09:25:32;20.55;;;16.58;;
77402;SDS011;66472;53.046;8.656;2023-04-23T09:30:28;21.97;;;17.73;;
77402;SDS011;66472;53.046;8.656;2023-04-23T09:35:23;19.00;;;16.83;;
77402;SDS011;66472;53.046;8.656;2023-04-23T09:40:22;20.87;;;18.27;;
77402;SDS011;66472;53.046;8.656;2023-04-23T09:45:17;22.83;;;20.47;;
77402;SDS011;66472;53.046;8.656;2023-04-23T09:50:12;20.30;;;18.13;;
77402;SDS011;66472;53.046;8.656;2023-04-23T09:55:08;17.93;;;16.10;;
77402;SDS011;66472;53.046;8.656;2023-04-23T10:00:13;16.83;;;15.13;;
77402;SDS011;66472;53.046;8.656;2023-04-23T10:05:14;19.50;;;13.87;;
77402;SDS011;66472;53.046;8.656;2023-04-23T10:10:10;15.70;;;14.10;;
77402;SDS011;66472;53.046;8.656;2023-04-23T10:15:05;15.50;;;13.70;;
77402;SDS011;66472;53.046;8.656;2023-04-23T10:20:01;15.27;;;13.67;;
77402;SDS011;66472;53.046;8.656;2023-04-23T10:24:57;16.33;;;14.57;;
77402;SDS011;66472;53.046;8.656;2023-04-23T10:29:54;14.87;;;13.37;;
77402;SDS011;66472;53.046;8.656;2023-04-23T10:34:51;15.35;;;13.85;;
77402;SDS011;66472;53.046;8.656;2023-04-23T10:39:48;15.65;;;13.77;;
77402;SDS011;66472;53.046;8.656;2023-04-23T10:44:44;16.10;;;14.43;;
77402;SDS011;66472;53.046;8.656;2023-04-23T10:49:40;16.40;;;14.57;;
77402;SDS011;66472;53.046;8.656;2023-04-23T10:54:35;15.70;;;14.10;;
77402;SDS011;66472;53.046;8.656;2023-04-23T10:59:31;16.48;;;14.43;;
77402;SDS011;66472;53.046;8.656;2023-04-23T11:04:27;16.13;;;14.43;;
77402;SDS011;66472;53.046;8.656;2023-04-23T11:09:30;14.77;;;13.18;;
77402;SDS011;66472;53.046;8.656;2023-04-23T11:14:32;17.05;;;14.55;;
77402;SDS011;66472;53.046;8.656;2023-04-23T11:19:28;14.80;;;13.30;;
77402;SDS011;66472;53.046;8.656;2023-04-23T11:24:27;15.13;;;13.60;;
77402;SDS011;66472;53.046;8.656;2023-04-23T11:29:24;14.25;;;12.75;;
77402;SDS011;66472;53.046;8.656;2023-04-23T11:34:19;16.07;;;12.87;;
77402;SDS011;66472;53.046;8.656;2023-04-23T11:39:16;12.55;;;11.35;;
77402;SDS011;66472;53.046;8.656;2023-04-23T11:44:13;13.25;;;11.25;;
77402;SDS011;66472;53.046;8.656;2023-04-23T11:49:08;12.83;;;11.63;;
77402;SDS011;66472;53.046;8.656;2023-04-23T11:54:04;12.38;;;11.25;;
77402;SDS011;66472;53.046;8.656;2023-04-23T11:59:03;13.77;;;12.48;;
77402;SDS011;66472;53.046;8.656;2023-04-23T12:03:58;13.77;;;12.57;;
77402;SDS011;66472;53.046;8.656;2023-04-23T12:08:53;12.30;;;11.07;;
77402;SDS011;66472;53.046;8.656;2023-04-23T12:13:49;10.25;;;9.27;;
77402;SDS011;66472;53.046;8.656;2023-04-23T12:18:44;9.63;;;8.73;;
77402;SDS011;66472;53.046;8.656;2023-04-23T12:23:40;7.80;;;7.10;;
77402;SDS011;66472;53.046;8.656;2023-04-23T12:34:07;7.53;;;6.93;;
77402;SDS011;66472;53.046;8.656;2023-04-23T12:39:18;6.13;;;5.57;;
77402;SDS011;66472;53.046;8.656;2023-04-23T12:44:13;8.35;;;7.50;;
77402;SDS011;66472;53.046;8.656;2023-04-23T12:49:09;6.70;;;6.22;;
77402;SDS011;66472;53.046;8.656;2023-04-23T12:54:04;8.40;;;6.63;;
77402;SDS011;66472;53.046;8.656;2023-04-23T12:58:59;6.88;;;6.25;;
77402;SDS011;66472;53.046;8.656;2023-04-23T13:03:56;7.20;;;6.60;;
77402;SDS011;66472;53.046;8.656;2023-04-23T13:08:51;7.07;;;6.38;;
77402;SDS011;66472;53.046;8.656;2023-04-23T13:13:46;7.22;;;6.53;;
77402;SDS011;66472;53.046;8.656;2023-04-23T13:18:42;6.65;;;6.03;;
77402;SDS011;66472;53.046;8.656;2023-04-23T13:23:37;8.18;;;7.40;;
77402;SDS011;66472;53.046;8.656;2023-04-23T13:28:33;7.60;;;6.90;;
77402;SDS011;66472;53.046;8.656;2023-04-23T13:33:29;6.63;;;6.13;;
77402;SDS011;66472;53.046;8.656;2023-04-23T13:38:25;7.57;;;6.97;;
77402;SDS011;66472;53.046;8.656;2023-04-23T13:43:21;7.25;;;6.65;;
77402;SDS011;66472;53.046;8.656;2023-04-23T13:48:17;7.25;;;6.65;;
77402;SDS011;66472;53.046;8.656;2023-04-23T13:53:12;6.20;;;5.60;;
77402;SDS011;66472;53.046;8.656;2023-04-23T13:58:07;7.07;;;5.80;;
77402;SDS011;66472;53.046;8.656;2023-04-23T14:03:03;6.38;;;5.82;;
77402;SDS011;66472;53.046;8.656;2023-04-23T14:07:58;6.22;;;5.72;;
77402;SDS011;66472;53.046;8.656;2023-04-23T14:12:54;5.88;;;5.32;;
77402;SDS011;66472;53.046;8.656;2023-04-23T14:17:49;6.47;;;5.70;;
77402;SDS011;66472;53.046;8.656;2023-04-23T14:22:48;6.82;;;5.85;;
77402;SDS011;66472;53.046;8.656;2023-04-23T14:27:45;6.18;;;5.50;;
77402;SDS011;66472;53.046;8.656;2023-04-23T14:32:43;5.47;;;4.97;;
77402;SDS011;66472;53.046;8.656;2023-04-23T14:37:42;5.68;;;5.10;;
77402;SDS011;66472;53.046;8.656;2023-04-23T14:42:39;5.90;;;5.30;;
77402;SDS011;66472;53.046;8.656;2023-04-23T14:47:34;5.47;;;4.97;;
77402;SDS011;66472;53.046;8.656;2023-04-23T14:52:29;11.53;;;6.83;;
77402;SDS011;66472;53.046;8.656;2023-04-23T14:57:25;12.57;;;10.37;;
77402;SDS011;66472;53.046;8.656;2023-04-23T15:02:22;12.90;;;12.00;;
77402;SDS011;66472;53.046;8.656;2023-04-23T15:07:18;20.83;;;19.43;;
77402;SDS011;66472;53.046;8.656;2023-04-23T15:17:27;21.13;;;19.43;;
77402;SDS011;66472;53.046;8.656;2023-04-23T15:22:22;16.40;;;15.10;;
77402;SDS011;66472;53.046;8.656;2023-04-23T15:27:17;14.33;;;13.23;;
77402;SDS011;66472;53.046;8.656;2023-04-23T15:32:13;13.07;;;12.00;;
77402;SDS011;66472;53.046;8.656;2023-04-23T15:37:08;13.43;;;12.47;;
77402;SDS011;66472;53.046;8.656;2023-04-23T15:42:03;14.97;;;13.67;;
77402;SDS011;66472;53.046;8.656;2023-04-23T15:46:59;12.10;;;10.87;;
77402;SDS011;66472;53.046;8.656;2023-04-23T15:51:57;11.83;;;9.93;;
77402;SDS011;66472;53.046;8.656;2023-04-23T15:56:52;13.05;;;11.85;;
77402;SDS011;66472;53.046;8.656;2023-04-23T16:01:51;12.07;;;11.17;;
77402;SDS011;66472;53.046;8.656;2023-04-23T16:06:46;10.93;;;10.13;;
77402;SDS011;66472;53.046;8.656;2023-04-23T16:11:41;12.00;;;10.98;;
77402;SDS011;66472;53.046;8.656;2023-04-23T16:16:36;12.43;;;11.33;;
77402;SDS011;66472;53.046;8.656;2023-04-23T16:21:32;13.70;;;10.90;;
77402;SDS011;66472;53.046;8.656;2023-04-23T16:26:28;11.60;;;10.80;;
77402;SDS011;66472;53.046;8.656;2023-04-23T16:31:23;12.97;;;11.90;;
77402;SDS011;66472;53.046;8.656;2023-04-23T16:36:18;19.60;;;14.33;;
77402;SDS011;66472;53.046;8.656;2023-04-23T16:41:14;15.75;;;13.82;;
77402;SDS011;66472;53.046;8.656;2023-04-23T16:46:15;12.03;;;10.93;;
77402;SDS011;66472;53.046;8.656;2023-04-23T16:51:11;10.40;;;9.50;;
77402;SDS011;66472;53.046;8.656;2023-04-23T16:56:06;8.63;;;8.00;;
77402;SDS011;66472;53.046;8.656;2023-04-23T17:01:02;7.47;;;7.07;;
77402;SDS011;66472;53.046;8.656;2023-04-23T17:11:08;12.20;;;11.50;;
77402;SDS011;66472;53.046;8.656;2023-04-23T17:16:03;11.70;;;10.87;;
77402;SDS011;66472;53.046;8.656;2023-04-23T17:20:59;34.45;;;32.25;;
77402;SDS011;66472;53.046;8.656;2023-04-23T17:25:54;22.50;;;21.30;;
77402;SDS011;66472;53.046;8.656;2023-04-23T17:30:49;15.43;;;14.50;;
77402;SDS011;66472;53.046;8.656;2023-04-23T17:35:45;13.40;;;12.50;;
77402;SDS011;66472;53.046;8.656;2023-04-23T17:40:43;15.03;;;13.63;;
77402;SDS011;66472;53.046;8.656;2023-04-23T17:45:38;19.70;;;18.65;;
77402;SDS011;66472;53.046;8.656;2023-04-23T17:56:03;13.73;;;13.03;;
77402;SDS011;66472;53.046;8.656;2023-04-23T18:01:10;17.33;;;16.37;;
77402;SDS011;66472;53.046;8.656;2023-04-23T18:06:09;18.43;;;17.27;;
77402;SDS011;66472;53.046;8.656;2023-04-23T18:11:04;14.87;;;13.90;;
77402;SDS011;66472;53.046;8.656;2023-04-23T18:16:10;16.80;;;15.90;;
77402;SDS011;66472;53.046;8.656;2023-04-23T18:21:20;22.50;;;20.70;;
77402;SDS011;66472;53.046;8.656;2023-04-23T18:26:24;24.03;;;22.83;;
77402;SDS011;66472;53.046;8.656;2023-04-23T18:31:42;30.13;;;28.53;;
77402;SDS011;66472;53.046;8.656;2023-04-23T18:36:37;20.23;;;19.15;;
77402;SDS011;66472;53.046;8.656;2023-04-23T18:41:35;20.27;;;19.23;;
77402;SDS011;66472;53.046;8.656;2023-04-23T18:46:31;19.60;;;18.37;;
77402;SDS011;66472;53.046;8.656;2023-04-23T18:51:30;24.17;;;22.93;;
77402;SDS011;66472;53.046;8.656;2023-04-23T18:56:27;26.00;;;24.63;;
77402;SDS011;66472;53.046;8.656;2023-04-23T19:01:23;22.37;;;21.17;;
77402;SDS011;66472;53.046;8.656;2023-04-23T19:06:18;22.43;;;21.13;;
77402;SDS011;66472;53.046;8.656;2023-04-23T19:11:13;24.40;;;23.13;;
77402;SDS011;66472;53.046;8.656;2023-04-23T19:16:09;32.90;;;30.77;;
77402;SDS011;66472;53.046;8.656;2023-04-23T19:21:05;31.43;;;29.70;;
77402;SDS011;66472;53.046;8.656;2023-04-23T19:26:00;27.67;;;25.73;;
77402;SDS011;66472;53.046;8.656;2023-04-23T19:30:57;31.13;;;29.40;;
77402;SDS011;66472;53.046;8.656;2023-04-23T19:35:53;26.98;;;25.45;;
77402;SDS011;66472;53.046;8.656;2023-04-23T19:40:48;19.83;;;18.73;;
77402;SDS011;66472;53.046;8.656;2023-04-23T19:45:44;26.37;;;24.97;;
77402;SDS011;66472;53.046;8.656;2023-04-23T19:50:40;28.83;;;27.17;;
77402;SDS011;66472;53.046;8.656;2023-04-23T19:55:35;29.77;;;28.10;;
77402;SDS011;66472;53.046;8.656;2023-04-23T20:00:31;34.30;;;32.30;;
77402;SDS011;66472;53.046;8.656;2023-04-23T20:05:29;35.80;;;33.97;;
77402;SDS011;66472;53.046;8.656;2023-04-23T20:10:24;32.47;;;30.63;;
77402;SDS011;66472;53.046;8.656;2023-04-23T20:15:24;35.83;;;33.97;;
77402;SDS011;66472;53.046;8.656;2023-04-23T20:20:19;37.90;;;35.70;;
77402;SDS011;66472;53.046;8.656;2023-04-23T20:25:15;38.50;;;36.47;;
77402;SDS011;66472;53.046;8.656;2023-04-23T20:30:11;40.17;;;37.90;;
77402;SDS011;66472;53.046;8.656;2023-04-23T20:35:07;44.37;;;41.87;;
77402;SDS011;66472;53.046;8.656;2023-04-23T20:40:03;39.60;;;37.40;;
77402;SDS011;66472;53.046;8.656;2023-04-23T20:44:59;35.23;;;33.37;;
77402;SDS011;66472;53.046;8.656;2023-04-23T20:49:55;38.60;;;36.55;;
77402;SDS011;66472;53.046;8.656;2023-04-23T20:54:50;51.87;;;49.07;;
77402;SDS011;66472;53.046;8.656;2023-04-23T20:59:45;46.50;;;43.97;;
77402;SDS011;66472;53.046;8.656;2023-04-23T21:04:41;40.17;;;37.97;;
77402;SDS011;66472;53.046;8.656;2023-04-23T21:09:36;42.03;;;39.72;;
77402;SDS011;66472;53.046;8.656;2023-04-23T21:14:31;49.50;;;46.80;;
77402;SDS011;66472;53.046;8.656;2023-04-23T21:19:27;53.17;;;50.33;;
77402;SDS011;66472;53.046;8.656;2023-04-23T21:24:22;50.63;;;47.78;;
77402;SDS011;66472;53.046;8.656;2023-04-23T21:29:17;57.95;;;54.80;;
77402;SDS011;66472;53.046;8.656;2023-04-23T21:34:13;54.08;;;51.13;;
77402;SDS011;66472;53.046;8.656;2023-04-23T21:39:08;50.60;;;47.70;;
77402;SDS011;66472;53.046;8.656;2023-04-23T21:44:04;49.23;;;46.43;;
77402;SDS011;66472;53.046;8.656;2023-04-23T21:48:59;53.67;;;50.73;;
77402;SDS011;66472;53.046;8.656;2023-04-23T21:53:56;55.10;;;52.00;;
77402;SDS011;66472;53.046;8.656;2023-04-23T21:58:51;55.63;;;52.53;;
77402;SDS011;66472;53.046;8.656;2023-04-23T22:03:46;61.92;;;58.50;;
77402;SDS011;66472;53.046;8.656;2023-04-23T22:08:43;63.30;;;59.73;;
77402;SDS011;66472;53.046;8.656;2023-04-23T22:13:38;63.37;;;59.57;;
77402;SDS011;66472;53.046;8.656;2023-04-23T22:18:34;62.20;;;58.70;;
77402;SDS011;66472;53.046;8.656;2023-04-23T22:23:29;57.20;;;53.93;;
77402;SDS011;66472;53.046;8.656;2023-04-23T22:28:24;42.07;;;39.50;;
77402;SDS011;66472;53.046;8.656;2023-04-23T22:33:20;43.07;;;40.67;;
77402;SDS011;66472;53.046;8.656;2023-04-23T22:38:15;40.20;;;37.97;;
77402;SDS011;66472;53.046;8.656;2023-04-23T22:43:11;42.80;;;40.53;;
77402;SDS011;66472;53.046;8.656;2023-04-23T22:48:06;46.23;;;43.47;;
77402;SDS011;66472;53.046;8.656;2023-04-23T22:53:02;45.43;;;43.03;;
77402;SDS011;66472;53.046;8.656;2023-04-23T22:57:57;40.08;;;37.92;;
77402;SDS011;66472;53.046;8.656;2023-04-23T23:02:52;40.67;;;38.50;;
77402;SDS011;66472;53.046;8.656;2023-04-23T23:07:48;33.97;;;32.22;;
77402;SDS011;66472;53.046;8.656;2023-04-23T23:12:43;32.47;;;30.47;;
77402;SDS011;66472;53.046;8.656;2023-04-23T23:17:38;34.92;;;33.13;;
77402;SDS011;66472;53.046;8.656;2023-04-23T23:22:36;33.37;;;31.57;;
77402;SDS011;66472;53.046;8.656;2023-04-23T23:27:32;32.33;;;30.60;;
77402;SDS011;66472;53.046;8.656;2023-04-23T23:32:27;30.40;;;28.87;;
77402;SDS011;66472;53.046;8.656;2023-04-23T23:37:22;30.00;;;28.20;;
77402;SDS011;66472;53.046;8.656;2023-04-23T23:42:18;25.05;;;23.75;;
77402;SDS011;66472;53.046;8.656;2023-04-23T23:47:13;27.38;;;25.88;;
77402;SDS011;66472;53.046;8.656;2023-04-23T23:52:08;24.80;;;23.40;;
77402;SDS011;66472;53.046;8.656;2023-04-23T23:57:04;20.48;;;19.20;;
